Time;durP1;ratioP1;P1;durP2;ratioP2;P2;SDS_P1;SDS_P2;PMS_P1;PMS_P2;Temp;Humidity;BMP_temperature;BMP_pressure;BME280_temperature;BME280_humidity;BME280_pressure;Samples;Min_cycle;Max_cycle;Signal;HPM_P1;HPM_P2
2023/04/04 00:01:01;;;;;;;9.10;3.97;;;-0.70;99.90;;;;;;4418158;28;657932;-67
2023/04/04 00:03:50;;;;;;;14.33;4.80;;;-0.70;99.90;;;;;;4437927;28;658197;-69
2023/04/04 00:06:43;;;;;;;13.93;4.82;;;-0.70;99.90;;;;;;4417716;28;658969;-68
2023/04/04 00:09:30;;;;;;;12.83;4.87;;;-0.80;99.90;;;;;;4402846;28;658011;-68
2023/04/04 00:12:17;;;;;;;13.10;4.80;;;-0.80;99.90;;;;;;4445992;28;659979;-67
2023/04/04 00:15:06;;;;;;;10.73;4.30;;;-0.90;99.90;;;;;;4433747;28;658237;-68
2023/04/04 00:17:54;;;;;;;14.13;4.93;;;-0.90;99.90;;;;;;4431367;28;658643;-67
2023/04/04 00:20:41;;;;;;;13.50;5.03;;;-1.00;99.90;;;;;;4418703;28;658243;-67
2023/04/04 00:23:30;;;;;;;10.77;5.07;;;-1.10;99.90;;;;;;4440046;28;658776;-67
2023/04/04 00:26:17;;;;;;;13.67;5.13;;;-1.10;99.90;;;;;;4412233;28;658528;-67
2023/04/04 00:29:04;;;;;;;9.65;4.50;;;-1.10;99.90;;;;;;4444158;28;658406;-68
2023/04/04 00:31:51;;;;;;;9.77;4.50;;;-1.20;99.90;;;;;;4419733;28;656912;-67
2023/04/04 00:34:39;;;;;;;10.70;4.37;;;-1.20;99.90;;;;;;4440790;28;656553;-68
2023/04/04 00:37:27;;;;;;;10.70;4.40;;;-1.20;99.90;;;;;;4418877;28;657868;-67
2023/04/04 00:40:16;;;;;;;12.57;4.90;;;-1.30;99.90;;;;;;4437332;28;657675;-67
2023/04/04 00:43:04;;;;;;;11.23;4.90;;;-1.30;99.90;;;;;;4419102;28;657516;-68
2023/04/04 00:45:52;;;;;;;16.43;4.97;;;-1.40;99.90;;;;;;4425487;28;657550;-67
2023/04/04 00:48:39;;;;;;;9.73;4.50;;;-1.40;99.90;;;;;;4440694;28;658225;-67
2023/04/04 00:51:26;;;;;;;13.83;4.83;;;-1.40;99.90;;;;;;4413098;28;657147;-67
2023/04/04 00:54:14;;;;;;;11.07;4.77;;;-1.50;99.90;;;;;;4439339;28;657420;-67
2023/04/04 00:57:03;;;;;;;14.10;5.30;;;-1.50;99.90;;;;;;4424098;28;657733;-67
2023/04/04 00:59:50;;;;;;;13.07;5.30;;;-1.60;99.90;;;;;;4435134;28;657541;-68
2023/04/04 01:02:37;;;;;;;13.40;5.00;;;-1.70;99.90;;;;;;4445421;28;658503;-67
2023/04/04 01:05:25;;;;;;;11.50;4.97;;;-1.70;99.90;;;;;;4441836;28;657967;-67
2023/04/04 01:08:12;;;;;;;14.90;5.17;;;-1.80;99.90;;;;;;4434576;28;658682;-68
2023/04/04 01:11:00;;;;;;;11.20;4.30;;;-1.90;99.90;;;;;;4441715;28;657253;-68
2023/04/04 01:13:49;;;;;;;12.90;5.00;;;-1.90;99.90;;;;;;4447131;28;657521;-67
2023/04/04 01:16:36;;;;;;;11.87;5.07;;;-2.00;99.90;;;;;;4421307;28;657632;-67
2023/04/04 01:19:26;;;;;;;13.77;4.50;;;-2.00;99.90;;;;;;4436509;28;658450;-67
2023/04/04 01:22:13;;;;;;;10.33;4.47;;;-2.10;99.90;;;;;;4417400;28;658692;-67
2023/04/04 01:25:01;;;;;;;10.73;4.47;;;-2.10;99.90;;;;;;4418647;28;657879;-68
2023/04/04 01:27:50;;;;;;;14.17;4.90;;;-2.20;99.90;;;;;;4443081;28;657725;-67
2023/04/04 01:30:37;;;;;;;13.38;5.20;;;-2.20;99.90;;;;;;4420788;28;659318;-68
2023/04/04 01:33:28;;;;;;;12.60;5.20;;;-2.30;99.90;;;;;;4438509;28;658045;-67
2023/04/04 01:36:18;;;;;;;11.80;5.07;;;-2.30;99.90;;;;;;4409821;28;657833;-68
2023/04/04 01:39:21;;;;;;;9.07;4.50;;;-2.30;99.90;;;;;;4421331;28;658207;-68
2023/04/04 01:42:08;;;;;;;12.07;4.80;;;-2.40;99.90;;;;;;4413776;28;657174;-67
2023/04/04 01:44:57;;;;;;;10.90;4.67;;;-2.40;99.90;;;;;;4424334;28;658755;-68
2023/04/04 01:47:44;;;;;;;12.37;4.20;;;-2.40;99.90;;;;;;4437359;28;658426;-67
2023/04/04 01:50:31;;;;;;;10.67;4.27;;;-2.50;99.90;;;;;;4421563;28;657272;-67
2023/04/04 01:53:18;;;;;;;9.33;4.47;;;-2.50;99.90;;;;;;4443150;28;658739;-67
2023/04/04 01:56:06;;;;;;;11.97;4.90;;;-2.60;99.90;;;;;;4425991;28;656720;-67
2023/04/04 01:58:53;;;;;;;10.50;4.47;;;-2.60;99.90;;;;;;4438600;28;658729;-67
2023/04/04 02:01:42;;;;;;;13.02;4.88;;;-2.60;99.90;;;;;;4424823;28;657796;-69
2023/04/04 02:04:29;;;;;;;12.88;4.75;;;-2.60;99.90;;;;;;4436882;28;657769;-67
2023/04/04 02:07:17;;;;;;;15.83;4.53;;;-2.70;99.90;;;;;;4420943;28;658581;-67
2023/04/04 02:10:05;;;;;;;12.77;4.67;;;-2.70;99.90;;;;;;4444057;28;657698;-67
2023/04/04 02:12:53;;;;;;;11.93;4.93;;;-2.70;99.90;;;;;;4436585;28;659107;-68
2023/04/04 02:15:40;;;;;;;11.37;4.00;;;-2.70;99.90;;;;;;4440576;28;658257;-68
2023/04/04 02:18:29;;;;;;;9.23;4.53;;;-2.70;99.90;;;;;;4462397;28;657865;-68
2023/04/04 02:21:16;;;;;;;11.33;4.67;;;-2.70;99.90;;;;;;4435854;28;656701;-68
2023/04/04 02:24:04;;;;;;;13.77;4.57;;;-2.70;99.90;;;;;;4458003;28;657443;-67
2023/04/04 02:26:51;;;;;;;10.63;4.43;;;-2.80;99.90;;;;;;4431417;28;657770;-67
2023/04/04 02:29:38;;;;;;;9.87;4.30;;;-2.80;99.90;;;;;;4444146;28;658951;-67
2023/04/04 02:32:26;;;;;;;10.63;4.33;;;-2.80;99.90;;;;;;4420934;28;656700;-68
2023/04/04 02:35:15;;;;;;;16.67;5.20;;;-2.80;99.90;;;;;;4450565;28;657349;-68
2023/04/04 02:38:02;;;;;;;10.90;4.27;;;-2.80;99.90;;;;;;4433611;28;659144;-68
2023/04/04 02:40:50;;;;;;;8.60;4.40;;;-2.80;99.90;;;;;;4458702;28;657427;-68
2023/04/04 02:43:37;;;;;;;9.30;4.40;;;-2.80;99.90;;;;;;4433535;28;657447;-67
2023/04/04 02:46:24;;;;;;;9.18;4.43;;;-2.80;99.90;;;;;;4458586;28;657093;-67
2023/04/04 02:49:12;;;;;;;10.47;4.77;;;-2.80;99.90;;;;;;4437846;27;657880;-68
2023/04/04 02:52:01;;;;;;;10.87;4.87;;;-2.90;99.90;;;;;;4461326;28;656821;-68
2023/04/04 02:54:49;;;;;;;11.07;4.75;;;-2.90;99.90;;;;;;4418932;28;659299;-68
2023/04/04 02:57:36;;;;;;;12.57;4.87;;;-2.90;99.90;;;;;;4431037;28;658023;-68
2023/04/04 03:00:23;;;;;;;12.00;4.67;;;-2.90;99.90;;;;;;4456438;28;658792;-68
2023/04/04 03:03:11;;;;;;;15.07;5.50;;;-2.90;99.90;;;;;;4428275;28;657590;-69
2023/04/04 03:05:58;;;;;;;12.82;4.82;;;-2.90;99.90;;;;;;4447160;28;658770;-68
2023/04/04 03:08:47;;;;;;;12.73;4.03;;;-2.90;99.90;;;;;;4426081;28;657267;-69
2023/04/04 03:11:34;;;;;;;12.37;5.30;;;-2.90;99.90;;;;;;4439270;28;657771;-68
2023/04/04 03:14:22;;;;;;;15.70;4.87;;;-2.90;99.90;;;;;;4437878;28;657840;-68
2023/04/04 03:17:09;;;;;;;8.10;4.60;;;-2.90;99.90;;;;;;4453850;28;657983;-69
2023/04/04 03:19:56;;;;;;;12.73;5.03;;;-2.80;99.90;;;;;;4434298;28;656565;-68
2023/04/04 03:22:44;;;;;;;10.70;4.80;;;-2.80;99.90;;;;;;4454423;28;658941;-68
2023/04/04 03:25:32;;;;;;;9.73;4.50;;;-2.80;99.90;;;;;;4435190;28;657776;-68
2023/04/04 03:28:20;;;;;;;12.33;4.47;;;-2.70;99.90;;;;;;4456646;28;656851;-68
2023/04/04 03:31:07;;;;;;;12.40;5.40;;;-2.70;99.90;;;;;;4428558;28;658630;-69
2023/04/04 03:33:54;;;;;;;11.70;4.43;;;-2.60;99.90;;;;;;4445533;28;658169;-68
2023/04/04 03:36:42;;;;;;;11.20;4.93;;;-2.60;99.90;;;;;;4431349;28;658058;-69
2023/04/04 03:39:29;;;;;;;12.07;4.63;;;-2.50;99.90;;;;;;4458761;28;657783;-69
2023/04/04 03:42:18;;;;;;;11.43;4.33;;;-2.50;99.90;;;;;;4431115;28;657321;-69
2023/04/04 03:45:06;;;;;;;12.33;4.90;;;-2.50;99.90;;;;;;4437325;28;658284;-69
2023/04/04 03:47:53;;;;;;;8.90;4.20;;;-2.50;99.90;;;;;;4440813;28;658211;-69
2023/04/04 03:50:40;;;;;;;13.57;5.40;;;-2.50;99.90;;;;;;4426338;28;657622;-70
2023/04/04 03:53:28;;;;;;;10.73;4.53;;;-2.40;99.90;;;;;;4459537;28;658052;-68
2023/04/04 03:56:15;;;;;;;11.23;4.70;;;-2.40;99.90;;;;;;4439358;28;657595;-69
2023/04/04 03:59:05;;;;;;;14.93;4.70;;;-2.40;99.90;;;;;;4445333;28;658663;-69
2023/04/04 04:01:52;;;;;;;11.17;4.80;;;-2.40;99.90;;;;;;4419312;28;659312;-68
2023/04/04 04:04:39;;;;;;;10.57;4.60;;;-2.40;99.90;;;;;;4449200;28;657549;-68
2023/04/04 04:07:26;;;;;;;8.10;3.70;;;-2.40;99.90;;;;;;4433044;28;657240;-69
2023/04/04 04:10:14;;;;;;;11.13;4.77;;;-2.40;99.90;;;;;;4458004;28;657089;-69
2023/04/04 04:13:01;;;;;;;12.57;5.30;;;-2.40;99.90;;;;;;4432306;28;657671;-69
2023/04/04 04:15:50;;;;;;;11.40;4.90;;;-2.40;99.90;;;;;;4446239;28;658341;-68
2023/04/04 04:18:38;;;;;;;13.70;5.00;;;-2.40;99.90;;;;;;4434635;28;658242;-68
2023/04/04 04:21:25;;;;;;;12.77;5.27;;;-2.40;99.90;;;;;;4451363;28;657335;-69
2023/04/04 04:24:13;;;;;;;10.13;4.47;;;-2.30;99.90;;;;;;4457834;28;658019;-68
2023/04/04 04:27:00;;;;;;;10.23;4.70;;;-2.30;99.90;;;;;;4447298;28;657959;-70
2023/04/04 04:29:48;;;;;;;16.20;5.30;;;-2.30;99.90;;;;;;4456530;28;658589;-68
2023/04/04 04:32:37;;;;;;;14.37;5.70;;;-2.30;99.90;;;;;;4442476;28;657647;-69
2023/04/04 04:35:24;;;;;;;10.87;4.87;;;-2.30;99.90;;;;;;4459219;28;657472;-68
2023/04/04 04:38:11;;;;;;;14.20;5.83;;;-2.30;99.90;;;;;;4433630;28;657948;-69
2023/04/04 04:40:58;;;;;;;16.63;5.53;;;-2.40;99.90;;;;;;4451780;28;659366;-68
2023/04/04 04:43:45;;;;;;;15.37;6.27;;;-2.30;99.90;;;;;;4434404;28;657954;-68
2023/04/04 04:46:33;;;;;;;13.80;5.50;;;-2.30;99.90;;;;;;4452790;28;657467;-68
2023/04/04 04:49:22;;;;;;;11.02;5.75;;;-2.30;99.90;;;;;;4428443;28;658034;-69
2023/04/04 04:52:09;;;;;;;12.88;5.93;;;-2.30;99.90;;;;;;4449235;28;657560;-69
2023/04/04 04:54:57;;;;;;;17.33;5.77;;;-2.30;99.90;;;;;;4426115;28;657977;-68
2023/04/04 04:57:44;;;;;;;14.10;6.03;;;-2.30;99.90;;;;;;4459071;28;657403;-68
2023/04/04 05:00:31;;;;;;;17.70;5.87;;;-2.20;99.90;;;;;;4422858;28;657627;-69
2023/04/04 05:03:18;;;;;;;14.80;6.57;;;-2.20;99.90;;;;;;4457465;28;657545;-69
2023/04/04 05:06:07;;;;;;;14.20;6.13;;;-2.20;99.90;;;;;;4418034;28;657848;-70
2023/04/04 05:08:54;;;;;;;14.10;6.22;;;-2.20;99.90;;;;;;4455500;28;657608;-68
2023/04/04 05:11:42;;;;;;;13.47;6.50;;;-2.10;99.90;;;;;;4432762;28;659009;-69
2023/04/04 05:14:29;;;;;;;11.90;5.40;;;-2.10;99.90;;;;;;4457829;28;657998;-69
2023/04/04 05:17:16;;;;;;;11.37;5.20;;;-2.10;99.90;;;;;;4426437;28;657656;-71
2023/04/04 05:20:04;;;;;;;15.02;5.75;;;-2.10;99.90;;;;;;4456764;28;658543;-71
2023/04/04 05:22:53;;;;;;;13.50;5.53;;;-2.10;99.90;;;;;;4432652;28;657780;-71
2023/04/04 05:25:40;;;;;;;12.15;5.60;;;-2.00;99.90;;;;;;4432291;28;657814;-72
2023/04/04 05:28:27;;;;;;;12.43;5.50;;;-1.90;99.90;;;;;;4440029;28;658388;-72
2023/04/04 05:31:15;;;;;;;15.63;5.70;;;-1.90;99.90;;;;;;4447091;28;657664;-71
2023/04/04 05:34:07;;;;;;;15.57;5.63;;;-1.80;99.90;;;;;;4427693;28;659408;-71
2023/04/04 05:36:54;;;;;;;12.37;6.07;;;-1.80;99.90;;;;;;4432241;28;658231;-71
2023/04/04 05:39:42;;;;;;;12.83;5.97;;;-1.70;99.90;;;;;;4423407;28;657696;-71
2023/04/04 05:42:30;;;;;;;14.73;5.57;;;-1.60;99.90;;;;;;4451850;28;658989;-71
2023/04/04 05:45:17;;;;;;;13.47;4.90;;;-1.50;99.90;;;;;;4450007;28;657835;-71
2023/04/04 05:48:05;;;;;;;14.67;5.93;;;-1.40;99.90;;;;;;4447461;28;657610;-71
2023/04/04 05:50:52;;;;;;;15.10;5.90;;;-1.30;99.90;;;;;;4416172;28;658287;-70
2023/04/04 05:53:39;;;;;;;14.13;5.90;;;-1.30;99.90;;;;;;4449849;28;658590;-70
2023/04/04 05:56:28;;;;;;;11.57;5.35;;;-1.30;99.90;;;;;;4432874;28;657813;-70
2023/04/04 05:59:16;;;;;;;13.17;5.77;;;-1.20;99.90;;;;;;4447777;28;657310;-71
2023/04/04 06:02:03;;;;;;;12.47;5.40;;;-1.30;99.90;;;;;;4458054;28;658605;-70
2023/04/04 06:04:50;;;;;;;12.87;5.77;;;-1.30;99.90;;;;;;4428269;28;657094;-70
2023/04/04 06:07:38;;;;;;;12.57;5.20;;;-1.20;99.90;;;;;;4447221;28;658732;-70
2023/04/04 06:10:26;;;;;;;12.87;5.10;;;-1.00;99.90;;;;;;4440041;28;657946;-71
2023/04/04 06:13:15;;;;;;;11.47;5.60;;;-1.00;99.90;;;;;;4459088;28;657410;-71
2023/04/04 06:16:02;;;;;;;16.40;6.70;;;-0.90;99.90;;;;;;4421099;28;659040;-70
2023/04/04 06:18:49;;;;;;;17.20;6.77;;;-0.90;99.90;;;;;;4450034;28;658043;-71
2023/04/04 06:21:37;;;;;;;10.73;5.27;;;-0.70;99.90;;;;;;4439389;28;659189;-71
2023/04/04 06:24:24;;;;;;;18.43;5.67;;;-0.70;99.90;;;;;;4457511;28;657370;-70
2023/04/04 06:27:11;;;;;;;11.03;4.83;;;-0.60;99.90;;;;;;4433004;27;658050;-69
2023/04/04 06:30:00;;;;;;;13.27;5.13;;;-0.50;99.90;;;;;;4458096;28;658460;-71
2023/04/04 06:32:47;;;;;;;12.53;4.60;;;-0.30;99.90;;;;;;4437592;28;659010;-71
2023/04/04 06:35:34;;;;;;;10.90;5.00;;;-0.10;99.90;;;;;;4454077;28;657330;-70
2023/04/04 06:38:21;;;;;;;9.60;4.50;;;0.10;99.90;;;;;;4432727;28;659214;-71
2023/04/04 06:41:09;;;;;;;11.50;4.73;;;0.10;99.90;;;;;;4445725;28;656360;-71
2023/04/04 06:43:56;;;;;;;12.03;4.27;;;0.10;99.90;;;;;;4440600;28;656520;-72
2023/04/04 06:46:44;;;;;;;9.97;4.37;;;0.20;99.90;;;;;;4452686;28;656855;-71
2023/04/04 06:49:32;;;;;;;7.37;4.27;;;0.20;99.90;;;;;;4436036;28;655990;-72
2023/04/04 06:52:19;;;;;;;12.27;5.07;;;0.30;99.90;;;;;;4460011;28;655759;-72
2023/04/04 06:55:07;;;;;;;13.00;3.97;;;0.30;99.90;;;;;;4435846;28;656580;-72
2023/04/04 06:57:54;;;;;;;8.53;4.33;;;0.40;99.90;;;;;;4458641;28;656499;-72
2023/04/04 07:00:42;;;;;;;8.43;4.50;;;0.50;99.90;;;;;;4432182;28;656913;-71
2023/04/04 07:03:31;;;;;;;10.93;4.27;;;0.30;99.90;;;;;;4450737;28;655446;-72
2023/04/04 07:06:19;;;;;;;9.17;3.90;;;0.40;99.90;;;;;;4425609;28;658112;-71
2023/04/04 07:09:06;;;;;;;8.20;3.83;;;0.50;99.90;;;;;;4432459;28;656007;-71
2023/04/04 07:11:53;;;;;;;14.10;3.93;;;0.60;99.90;;;;;;4450869;28;656353;-71
2023/04/04 07:14:41;;;;;;;12.77;4.47;;;0.30;99.90;;;;;;4427346;28;656866;-71
2023/04/04 07:17:28;;;;;;;10.70;4.00;;;0.60;99.90;;;;;;4460988;28;657121;-71
2023/04/04 07:20:17;;;;;;;9.90;3.63;;;0.70;99.90;;;;;;4425223;28;656451;-73
2023/04/04 07:23:04;;;;;;;9.33;4.20;;;0.70;99.90;;;;;;4460669;27;655691;-71
2023/04/04 07:25:52;;;;;;;10.20;4.60;;;0.50;99.90;;;;;;4445427;28;656063;-71
2023/04/04 07:28:39;;;;;;;11.53;4.40;;;0.80;99.90;;;;;;4459019;28;656080;-71
2023/04/04 07:31:27;;;;;;;13.63;4.27;;;1.00;99.90;;;;;;4424657;28;656885;-71
2023/04/04 07:34:14;;;;;;;9.90;3.73;;;1.00;99.90;;;;;;4454424;28;656444;-71
2023/04/04 07:37:03;;;;;;;10.10;3.70;;;1.40;99.90;;;;;;4431107;28;655566;-72
2023/04/04 07:39:50;;;;;;;8.75;3.25;;;1.50;99.90;;;;;;4435453;28;657730;-72
2023/04/04 07:42:39;;;;;;;6.13;3.10;;;1.60;99.90;;;;;;4443564;28;656922;-71
2023/04/04 07:45:27;;;;;;;7.23;3.20;;;1.60;99.90;;;;;;4426582;28;656228;-71
2023/04/04 07:48:14;;;;;;;6.30;3.20;;;1.80;99.90;;;;;;4457884;28;655597;-71
2023/04/04 07:51:03;;;;;;;6.30;3.03;;;1.80;99.90;;;;;;4421877;28;655613;-71
2023/04/04 07:53:52;;;;;;;6.45;2.97;;;2.00;99.90;;;;;;4424140;28;655638;-71
2023/04/04 07:56:39;;;;;;;7.17;3.20;;;2.40;99.90;;;;;;4452743;28;656012;-71
2023/04/04 07:59:26;;;;;;;6.80;3.47;;;2.80;99.90;;;;;;4427235;28;655218;-71
2023/04/04 08:02:13;;;;;;;7.00;3.53;;;3.00;99.90;;;;;;4451202;28;656178;-71
2023/04/04 08:05:00;;;;;;;6.27;3.30;;;3.50;99.90;;;;;;4440231;28;655741;-71
2023/04/04 08:07:48;;;;;;;7.73;3.93;;;3.80;99.90;;;;;;4441214;28;657087;-71
2023/04/04 08:10:37;;;;;;;6.57;3.03;;;3.90;99.90;;;;;;4444714;28;655274;-72
2023/04/04 08:13:24;;;;;;;8.10;3.37;;;3.60;99.90;;;;;;4445856;28;656301;-71
2023/04/04 08:16:11;;;;;;;6.40;3.00;;;3.90;99.90;;;;;;4430720;28;656563;-71
2023/04/04 08:18:59;;;;;;;6.47;2.97;;;4.00;99.90;;;;;;4452692;28;655842;-71
2023/04/04 08:21:46;;;;;;;6.13;3.20;;;4.40;99.90;;;;;;4423179;28;655649;-71
2023/04/04 08:24:33;;;;;;;4.30;2.40;;;4.60;98.00;;;;;;4457075;28;656303;-71
2023/04/04 08:27:22;;;;;;;7.97;2.53;;;4.30;94.50;;;;;;4436119;28;655066;-72
2023/04/04 08:30:10;;;;;;;5.93;2.30;;;4.20;94.80;;;;;;4452410;28;655553;-71
2023/04/04 08:32:57;;;;;;;5.87;2.70;;;3.90;92.00;;;;;;4430765;28;656435;-71
2023/04/04 08:35:44;;;;;;;6.20;2.77;;;4.00;94.10;;;;;;4454411;28;655821;-71
2023/04/04 08:38:31;;;;;;;5.20;2.70;;;3.80;93.40;;;;;;4434798;28;656027;-71
2023/04/04 08:41:19;;;;;;;5.83;2.40;;;3.80;91.90;;;;;;4458215;28;655570;-71
2023/04/04 08:44:07;;;;;;;6.70;3.37;;;4.00;92.10;;;;;;4439800;28;656648;-71
2023/04/04 08:46:54;;;;;;;7.53;3.27;;;4.30;90.40;;;;;;4437113;28;655616;-71
2023/04/04 08:49:43;;;;;;;5.97;2.30;;;4.20;90.20;;;;;;4418343;28;655864;-71
2023/04/04 08:52:31;;;;;;;8.13;2.97;;;4.10;88.60;;;;;;4434499;28;656040;-71
2023/04/04 08:55:19;;;;;;;5.67;2.53;;;4.40;90.30;;;;;;4451765;28;655869;-71
2023/04/04 08:58:06;;;;;;;4.43;2.37;;;4.90;85.90;;;;;;4439778;28;655631;-72
2023/04/04 09:00:55;;;;;;;5.03;2.87;;;5.00;81.50;;;;;;4460131;28;656998;-71
2023/04/04 09:03:42;;;;;;;8.93;2.30;;;5.40;85.40;;;;;;4423780;28;656809;-72
2023/04/04 09:06:30;;;;;;;5.30;2.22;;;5.80;75.80;;;;;;4451197;28;655730;-71
2023/04/04 09:09:18;;;;;;;3.83;1.80;;;6.40;75.30;;;;;;4440789;28;656612;-72
2023/04/04 09:12:06;;;;;;;6.80;2.00;;;6.40;65.20;;;;;;4438890;28;655938;-71
2023/04/04 09:14:53;;;;;;;3.90;2.10;;;6.10;61.30;;;;;;4453754;28;655864;-71
2023/04/04 09:17:42;;;;;;;3.10;1.95;;;6.00;59.30;;;;;;4433324;28;655733;-71
2023/04/04 09:20:39;;;;;;;3.67;1.90;;;5.80;56.80;;;;;;4452385;28;656196;-72
2023/04/04 09:23:27;;;;;;;2.77;1.87;;;6.10;55.80;;;;;;4413049;28;655751;-72
2023/04/04 09:26:15;;;;;;;4.40;2.17;;;6.00;58.10;;;;;;4450560;27;655440;-71
2023/04/04 09:29:03;;;;;;;3.57;2.20;;;6.20;57.20;;;;;;4441891;28;656304;-72
2023/04/04 09:31:50;;;;;;;6.23;2.33;;;5.70;57.50;;;;;;4441709;28;655851;-72
2023/04/04 09:34:39;;;;;;;3.97;2.47;;;5.80;60.60;;;;;;4445991;28;655910;-71
2023/04/04 09:37:26;;;;;;;3.87;2.60;;;5.90;62.90;;;;;;4445212;28;655563;-71
2023/04/04 09:40:14;;;;;;;5.07;2.22;;;6.10;65.30;;;;;;4453700;28;655860;-71
2023/04/04 09:43:02;;;;;;;3.97;2.27;;;5.90;56.60;;;;;;4440415;28;655870;-71
2023/04/04 09:45:49;;;;;;;5.90;2.27;;;5.30;58.70;;;;;;4462834;28;654852;-72
2023/04/04 09:48:36;;;;;;;5.20;2.87;;;4.70;61.30;;;;;;4439547;28;655876;-71
2023/04/04 09:51:26;;;;;;;6.47;2.10;;;4.40;61.10;;;;;;4458722;28;656025;-72
2023/04/04 09:54:20;;;;;;;4.27;1.80;;;4.20;64.00;;;;;;4434274;28;655883;-71
2023/04/04 09:57:08;;;;;;;5.30;2.23;;;4.30;60.00;;;;;;4433347;28;655893;-69
2023/04/04 09:59:58;;;;;;;4.60;2.37;;;4.30;58.90;;;;;;4424936;28;656353;-71
2023/04/04 10:02:47;;;;;;;5.67;2.33;;;4.40;62.90;;;;;;4429449;28;657421;-71
2023/04/04 10:05:34;;;;;;;4.82;2.20;;;4.70;63.20;;;;;;4456467;28;656165;-70
2023/04/04 10:08:23;;;;;;;6.67;2.40;;;5.00;61.70;;;;;;4438866;28;655948;-69
2023/04/04 10:11:10;;;;;;;6.47;2.30;;;5.70;65.70;;;;;;4432812;28;655691;-70
2023/04/04 10:13:58;;;;;;;6.87;2.40;;;5.50;58.20;;;;;;4460269;28;657018;-69
2023/04/04 10:16:45;;;;;;;5.35;2.30;;;5.30;63.70;;;;;;4448619;28;655450;-71
2023/04/04 10:19:32;;;;;;;4.10;2.20;;;5.10;60.40;;;;;;4467395;28;656539;-76
2023/04/04 10:22:20;;;;;;;3.90;2.10;;;4.90;58.70;;;;;;4454557;27;656985;-73
2023/04/04 10:25:10;;;;;;;4.20;1.80;;;5.20;63.20;;;;;;4453175;28;656278;-76
2023/04/04 10:27:57;;;;;;;3.97;2.00;;;5.20;58.10;;;;;;4439813;28;655605;-76
2023/04/04 10:30:48;;;;;;;4.40;2.00;;;5.60;59.00;;;;;;4456838;28;656224;-75
2023/04/04 10:33:39;;;;;;;4.93;2.13;;;6.50;65.90;;;;;;4415144;28;655790;-75
2023/04/04 10:36:29;;;;;;;3.23;1.90;;;6.80;59.60;;;;;;4437025;28;655480;-76
2023/04/04 10:39:21;;;;;;;3.47;2.10;;;6.90;57.60;;;;;;4438196;28;655914;-75
2023/04/04 10:42:10;;;;;;;3.50;2.30;;;6.60;56.90;;;;;;4428821;28;656651;-76
2023/04/04 10:44:57;;;;;;;4.10;2.10;;;6.70;61.10;;;;;;4436695;28;656080;-76
2023/04/04 10:47:44;;;;;;;4.93;2.37;;;6.70;60.70;;;;;;4461065;28;655335;-74
2023/04/04 10:50:33;;;;;;;4.57;1.83;;;7.10;59.70;;;;;;4423485;28;656154;-76
2023/04/04 10:53:21;;;;;;;6.10;2.10;;;7.70;54.90;;;;;;4434822;28;655638;-75
2023/04/04 10:56:08;;;;;;;6.50;2.70;;;7.60;56.00;;;;;;4465987;28;655919;-76
2023/04/04 10:59:12;;;;;;;4.60;2.17;;;7.30;54.90;;;;;;4439366;27;655726;-73
2023/04/04 11:01:59;;;;;;;5.27;2.30;;;6.90;53.90;;;;;;4420778;27;655462;-75
2023/04/04 11:04:47;;;;;;;3.27;1.87;;;7.70;62.90;;;;;;4421686;28;655375;-76
2023/04/04 11:07:34;;;;;;;2.90;2.03;;;8.40;54.90;;;;;;4458922;28;655869;-76
2023/04/04 11:10:22;;;;;;;5.17;1.90;;;8.40;55.80;;;;;;4430479;28;655691;-74
2023/04/04 11:13:11;;;;;;;3.93;2.07;;;7.90;47.60;;;;;;4456912;28;655762;-77
2023/04/04 11:16:03;;;;;;;7.00;2.70;;;7.40;51.00;;;;;;4428312;28;656979;-75
2023/04/04 11:18:51;;;;;;;4.47;2.20;;;7.80;56.50;;;;;;4405505;28;656117;-75
2023/04/04 11:21:39;;;;;;;4.17;2.07;;;7.30;48.40;;;;;;4438810;28;655593;-76
2023/04/04 11:24:27;;;;;;;5.50;2.33;;;6.90;52.50;;;;;;4424854;27;655499;-75
2023/04/04 11:27:15;;;;;;;7.17;2.70;;;6.80;52.00;;;;;;4452719;28;655599;-74
2023/04/04 11:30:12;;;;;;;4.70;2.50;;;6.70;56.20;;;;;;4466998;28;655999;-75
2023/04/04 11:33:02;;;;;;;4.67;2.30;;;6.60;53.10;;;;;;4436035;28;655402;-76
2023/04/04 11:35:49;;;;;;;5.65;2.28;;;6.40;54.40;;;;;;4428295;28;655548;-76
2023/04/04 11:38:39;;;;;;;4.73;2.30;;;6.00;52.30;;;;;;4428116;28;655894;-73
2023/04/04 11:41:43;;;;;;;3.57;1.87;;;5.90;55.30;;;;;;4422286;28;655619;-76
2023/04/04 11:44:31;;;;;;;3.80;1.93;;;5.30;52.50;;;;;;4415452;28;655985;-74
2023/04/04 11:47:19;;;;;;;5.90;2.33;;;6.00;58.20;;;;;;4452382;28;655318;-76
2023/04/04 11:50:09;;;;;;;5.23;2.13;;;6.40;55.90;;;;;;4434434;28;655458;-76
2023/04/04 11:52:57;;;;;;;5.30;2.57;;;6.50;54.10;;;;;;4426954;28;656662;-74
2023/04/04 11:55:46;;;;;;;8.97;2.80;;;6.70;57.00;;;;;;4456368;28;655175;-74
2023/04/04 11:58:35;;;;;;;5.33;2.60;;;6.20;54.90;;;;;;4425066;28;656341;-73
2023/04/04 12:01:23;;;;;;;6.10;2.70;;;5.60;57.50;;;;;;4420587;28;656802;-74
2023/04/04 12:04:10;;;;;;;6.33;2.90;;;5.40;58.00;;;;;;4447336;28;655879;-73
2023/04/04 12:07:00;;;;;;;4.37;2.17;;;5.20;59.20;;;;;;4445002;28;656128;-74
2023/04/04 12:09:48;;;;;;;4.73;2.23;;;5.70;60.60;;;;;;4432990;28;655935;-73
2023/04/04 12:12:37;;;;;;;5.90;2.80;;;5.90;59.70;;;;;;4445641;28;655794;-73
2023/04/04 12:15:24;;;;;;;6.83;2.50;;;6.00;60.60;;;;;;4452069;28;656420;-74
2023/04/04 12:18:12;;;;;;;3.83;2.23;;;5.90;57.90;;;;;;4434264;28;656829;-74
2023/04/04 12:21:00;;;;;;;6.53;2.30;;;6.00;58.50;;;;;;4441771;28;654735;-74
2023/04/04 12:23:49;;;;;;;5.90;2.40;;;6.10;56.70;;;;;;4428524;28;656524;-74
2023/04/04 12:26:37;;;;;;;4.77;2.13;;;6.00;59.20;;;;;;4427278;28;655475;-75
2023/04/04 12:29:25;;;;;;;3.80;2.20;;;6.40;59.90;;;;;;4458340;28;655712;-75
2023/04/04 12:32:13;;;;;;;5.60;2.60;;;6.10;57.60;;;;;;4430372;28;656537;-74
2023/04/04 12:35:00;;;;;;;7.53;2.83;;;6.20;57.80;;;;;;4431628;28;656227;-73
2023/04/04 12:37:58;;;;;;;6.40;2.60;;;6.00;56.20;;;;;;4449842;28;656963;-74
2023/04/04 12:40:47;;;;;;;7.30;3.10;;;5.50;59.10;;;;;;4410330;28;655529;-73
2023/04/04 12:43:35;;;;;;;4.50;2.83;;;5.20;60.50;;;;;;4451059;28;654836;-74
2023/04/04 12:46:27;;;;;;;6.30;2.60;;;4.50;58.80;;;;;;4424485;28;656541;-73
2023/04/04 12:49:14;;;;;;;7.77;2.73;;;4.50;61.90;;;;;;4429218;28;654974;-73
2023/04/04 12:52:03;;;;;;;6.17;2.40;;;4.60;63.80;;;;;;4435608;28;655406;-74
2023/04/04 12:54:51;;;;;;;8.23;2.70;;;4.70;65.30;;;;;;4434934;28;655964;-74
2023/04/04 12:57:40;;;;;;;4.27;2.23;;;4.80;65.30;;;;;;4450383;28;656634;-74
2023/04/04 13:00:27;;;;;;;12.87;2.80;;;4.70;64.10;;;;;;4431070;28;657071;-75
2023/04/04 13:03:15;;;;;;;4.93;2.30;;;4.40;66.60;;;;;;4457856;28;656328;-75
2023/04/04 13:06:02;;;;;;;3.67;2.53;;;4.50;65.00;;;;;;4442869;28;657113;-75
2023/04/04 13:08:50;;;;;;;6.97;2.55;;;4.50;68.40;;;;;;4454469;28;656353;-75
2023/04/04 13:11:56;;;;;;;4.80;2.53;;;4.80;61.80;;;;;;4416810;28;655764;-77
2023/04/04 13:14:58;;;;;;;8.07;3.37;;;4.60;62.20;;;;;;4414959;28;655863;-77
2023/04/04 13:17:46;;;;;;;3.65;2.33;;;4.60;62.90;;;;;;4399140;28;655230;-73
2023/04/04 13:20:33;;;;;;;8.00;2.73;;;4.50;62.90;;;;;;4440376;28;657319;-77
2023/04/04 13:23:21;;;;;;;6.33;3.23;;;4.50;66.50;;;;;;4424571;28;655574;-76
2023/04/04 13:26:09;;;;;;;8.37;2.97;;;4.50;65.00;;;;;;4427948;28;655776;-76
2023/04/04 13:28:56;;;;;;;4.33;2.73;;;4.50;66.50;;;;;;4411096;28;656291;-76
2023/04/04 13:31:45;;;;;;;7.23;2.40;;;4.00;67.00;;;;;;4447524;28;656480;-77
2023/04/04 13:34:34;;;;;;;5.23;3.03;;;4.30;68.00;;;;;;4423614;28;655957;-77
2023/04/04 13:37:22;;;;;;;6.93;3.27;;;4.50;70.00;;;;;;4426031;28;655607;-77
2023/04/04 13:40:10;;;;;;;8.93;2.73;;;4.70;68.80;;;;;;4446982;28;655808;-77
2023/04/04 13:42:57;;;;;;;9.43;3.33;;;4.70;67.00;;;;;;4427569;28;656549;-77
2023/04/04 13:45:45;;;;;;;7.23;2.67;;;4.60;71.00;;;;;;4434718;28;655811;-73
2023/04/04 13:48:33;;;;;;;6.30;2.93;;;4.30;72.00;;;;;;4416188;28;656814;-76
2023/04/04 13:51:23;;;;;;;7.80;3.67;;;4.80;72.60;;;;;;4418994;28;655506;-76
2023/04/04 13:54:11;;;;;;;6.93;3.40;;;4.30;78.70;;;;;;4423690;28;655892;-74
2023/04/04 13:56:58;;;;;;;4.57;2.20;;;4.90;79.30;;;;;;4441471;28;655874;-75
2023/04/04 13:59:45;;;;;;;5.38;3.20;;;5.30;74.70;;;;;;4415086;28;655496;-74
2023/04/04 14:02:32;;;;;;;9.03;3.53;;;5.20;77.20;;;;;;4429282;28;656527;-77
2023/04/04 14:05:22;;;;;;;6.93;3.27;;;5.80;77.60;;;;;;4426610;28;655597;-74
2023/04/04 14:08:09;;;;;;;9.07;3.50;;;6.20;72.40;;;;;;4426512;28;655468;-76
2023/04/04 14:10:56;;;;;;;5.97;3.43;;;6.00;72.00;;;;;;4425011;28;656098;-77
2023/04/04 14:13:43;;;;;;;5.73;3.30;;;6.40;72.20;;;;;;4455252;28;656563;-77
2023/04/04 14:16:30;;;;;;;7.57;3.87;;;6.90;70.50;;;;;;4422261;28;655713;-74
2023/04/04 14:19:18;;;;;;;7.40;3.80;;;7.10;68.70;;;;;;4461691;28;655797;-76
2023/04/04 14:22:06;;;;;;;6.83;3.50;;;6.70;68.40;;;;;;4444721;28;655141;-74
2023/04/04 14:24:54;;;;;;;7.37;3.67;;;6.30;67.10;;;;;;4457262;28;656676;-77